Time;durP1;ratioP1;P1;durP2;ratioP2;P2;SDS_P1;SDS_P2;PMS_P1;PMS_P2;Temp;Humidity;BMP_temperature;BMP_pressure;BME280_temperature;BME280_humidity;BME280_pressure;Samples;Min_cycle;Max_cycle;Signal;HPM_P1;HPM_P2
2023/08/19 00:03:27;;;;;;;16.35;13.85;;;;;;;22.73;53.00;101079.00;16112042;19;129574;-58
2023/08/19 00:08:48;;;;;;;15.43;13.73;;;;;;;22.73;52.96;101067.84;16113470;19;130687;-57
2023/08/19 00:14:10;;;;;;;15.35;13.75;;;;;;;22.74;53.20;101064.81;16110219;19;131397;-57
2023/08/19 00:19:32;;;;;;;14.77;13.23;;;;;;;22.73;52.94;101071.50;16111158;19;129426;-57
2023/08/19 00:24:54;;;;;;;17.33;13.90;;;;;;;22.74;52.77;101069.53;16109340;19;129436;-57
2023/08/19 00:30:16;;;;;;;15.50;13.55;;;;;;;22.73;52.81;101065.91;16118409;19;131156;-58
2023/08/19 00:35:39;;;;;;;13.95;12.50;;;;;;;22.72;52.78;101050.28;16126900;19;134941;-58
2023/08/19 00:41:03;;;;;;;13.48;12.07;;;;;;;22.73;53.13;101054.75;16127520;19;129470;-58
2023/08/19 00:46:25;;;;;;;13.93;12.43;;;;;;;22.73;52.65;101059.47;16123689;19;131756;-58
2023/08/19 00:51:47;;;;;;;13.13;11.82;;;;;;;22.74;52.85;101052.81;16125094;19;129516;-57
2023/08/19 00:57:10;;;;;;;12.60;11.27;;;;;;;22.73;52.38;101039.97;16127111;19;129892;-57
2023/08/19 01:02:32;;;;;;;11.80;10.60;;;;;;;22.73;52.70;101037.16;16125853;19;130577;-57
2023/08/19 01:08:00;;;;;;;12.27;10.95;;;;;;;22.75;52.48;101040.53;16127203;19;129568;-57
2023/08/19 01:13:30;;;;;;;12.20;10.90;;;;;;;22.73;52.58;101029.66;16124166;19;131002;-57
2023/08/19 01:18:53;;;;;;;11.20;10.10;;;;;;;22.72;52.74;101018.75;16127179;19;131614;-57
2023/08/19 01:24:20;;;;;;;11.32;10.13;;;;;;;22.72;52.60;101025.19;16122293;19;129644;-58
2023/08/19 01:29:42;;;;;;;12.10;10.80;;;;;;;22.71;52.56;101012.34;16125407;19;129656;-58
2023/08/19 01:35:05;;;;;;;11.50;9.93;;;;;;;22.72;52.46;101005.66;16123111;19;130188;-56
2023/08/19 01:40:28;;;;;;;11.23;10.02;;;;;;;22.71;52.99;101008.72;16123043;19;130251;-56
2023/08/19 01:45:51;;;;;;;11.02;9.70;;;;;;;22.72;52.73;101013.19;16123038;19;131158;-58
2023/08/19 01:51:13;;;;;;;10.65;9.55;;;;;;;22.72;52.45;101002.88;16112083;19;130763;-54
2023/08/19 01:56:36;;;;;;;10.63;9.57;;;;;;;22.72;52.38;100996.44;16119315;19;129681;-57
2023/08/19 02:01:59;;;;;;;10.55;9.48;;;;;;;22.71;52.47;100998.41;16118993;19;131760;-57
2023/08/19 02:07:20;;;;;;;10.70;9.52;;;;;;;22.72;52.38;100999.22;16117727;19;130405;-58
2023/08/19 02:12:42;;;;;;;11.73;9.52;;;;;;;22.71;52.48;101000.34;16121997;19;129401;-57
2023/08/19 02:18:05;;;;;;;9.27;8.38;;;;;;;22.72;52.88;100985.28;16120322;19;130126;-57
2023/08/19 02:23:27;;;;;;;10.27;9.27;;;;;;;22.72;52.36;100979.72;16120268;19;130548;-58
2023/08/19 02:28:48;;;;;;;9.95;9.02;;;;;;;22.72;52.87;100996.44;16117623;19;130740;-58
2023/08/19 02:34:10;;;;;;;10.60;9.38;;;;;;;22.71;52.53;100978.03;16116596;19;129656;-57
2023/08/19 02:39:32;;;;;;;10.35;9.35;;;;;;;22.71;52.42;100992.84;16114264;19;129676;-58
2023/08/19 02:44:54;;;;;;;9.82;8.88;;;;;;;22.71;52.42;100984.47;16117364;19;129372;-59
2023/08/19 02:50:16;;;;;;;9.52;8.60;;;;;;;22.71;52.37;100981.69;16117843;19;130210;-58
2023/08/19 02:55:41;;;;;;;9.43;8.52;;;;;;;22.72;52.34;100971.34;16118977;19;133061;-58
2023/08/19 03:01:03;;;;;;;9.60;8.63;;;;;;;22.71;52.65;100966.88;16126500;19;132704;-56
2023/08/19 03:06:25;;;;;;;9.18;8.13;;;;;;;22.71;52.26;100973.31;16120236;19;131525;-56
2023/08/19 03:11:47;;;;;;;9.70;8.80;;;;;;;22.72;52.29;100974.13;16122354;19;129740;-55
2023/08/19 03:17:09;;;;;;;8.55;7.75;;;;;;;22.71;52.53;100972.47;16116851;19;129497;-55
2023/08/19 03:22:32;;;;;;;8.70;7.90;;;;;;;22.71;52.66;100976.09;16119410;19;130225;-56
2023/08/19 03:27:54;;;;;;;9.80;8.40;;;;;;;22.71;52.39;100967.75;16118968;19;129971;-57
2023/08/19 03:33:16;;;;;;;9.20;8.30;;;;;;;22.71;52.38;100978.91;16116490;19;129496;-57
2023/08/19 03:38:38;;;;;;;8.98;8.07;;;;;;;22.71;52.36;100978.91;16118469;19;136517;-58
2023/08/19 03:44:00;;;;;;;9.20;8.30;;;;;;;22.71;52.15;100967.75;16112670;19;129155;-58
2023/08/19 03:49:22;;;;;;;8.55;7.65;;;;;;;22.71;52.19;100966.88;16114173;19;131419;-57
2023/08/19 03:54:44;;;;;;;8.60;7.70;;;;;;;22.70;52.23;100966.06;16110404;19;130179;-58
2023/08/19 04:00:06;;;;;;;8.52;7.50;;;;;;;22.71;52.38;100972.47;16109649;19;129921;-58
2023/08/19 04:05:28;;;;;;;8.48;7.57;;;;;;;22.71;52.19;100975.25;16109858;19;130739;-57
2023/08/19 04:10:50;;;;;;;7.72;6.95;;;;;;;22.70;52.18;100971.63;16109983;19;130219;-59
2023/08/19 04:16:12;;;;;;;8.23;6.95;;;;;;;22.71;52.19;100975.25;16107574;19;130426;-58
2023/08/19 04:21:34;;;;;;;8.05;7.28;;;;;;;22.71;52.25;100978.91;16108178;19;129725;-59
2023/08/19 04:26:56;;;;;;;8.00;7.20;;;;;;;22.70;52.11;100985.56;16098780;19;129844;-60
2023/08/19 04:32:19;;;;;;;7.75;7.05;;;;;;;22.71;52.19;100984.47;16096412;19;131019;-59
2023/08/19 04:37:41;;;;;;;7.38;6.65;;;;;;;22.70;52.23;100988.38;16103055;19;129623;-57
2023/08/19 04:43:03;;;;;;;7.53;6.82;;;;;;;22.70;52.30;100977.22;16105439;19;130506;-57
2023/08/19 04:48:25;;;;;;;7.75;7.05;;;;;;;22.70;52.14;100984.75;16100449;19;130981;-59
2023/08/19 04:53:47;;;;;;;7.70;6.88;;;;;;;22.69;52.18;100981.09;16103530;19;129549;-58
2023/08/19 04:59:09;;;;;;;8.23;6.70;;;;;;;22.70;52.51;100993.13;16104282;19;131327;-59
2023/08/19 05:04:31;;;;;;;6.85;6.25;;;;;;;22.69;52.25;100995.06;16104915;19;129783;-61
2023/08/19 05:09:52;;;;;;;7.38;6.68;;;;;;;22.70;52.33;100993.94;16104805;19;130621;-58
2023/08/19 05:15:14;;;;;;;7.45;6.75;;;;;;;22.70;52.20;100998.69;16111850;19;129475;-57
2023/08/19 05:20:36;;;;;;;7.57;6.80;;;;;;;22.70;52.11;101004.28;16126660;19;130705;-57
2023/08/19 05:25:58;;;;;;;6.28;5.68;;;;;;;22.69;52.16;101014.56;16123893;19;133961;-56
2023/08/19 05:31:23;;;;;;;6.53;5.93;;;;;;;22.69;51.84;101028.50;16120919;19;134454;-57
2023/08/19 05:36:45;;;;;;;6.40;5.80;;;;;;;22.70;51.83;101032.16;16125483;19;130388;-57
2023/08/19 05:42:07;;;;;;;6.70;6.10;;;;;;;22.69;52.10;101039.66;16106256;19;129767;-57
2023/08/19 05:47:29;;;;;;;6.82;6.22;;;;;;;22.69;52.21;101047.22;16118582;19;129589;-60
2023/08/19 05:52:52;;;;;;;6.47;5.88;;;;;;;22.70;52.02;101055.28;16117421;19;130267;-60
2023/08/19 05:58:15;;;;;;;6.45;5.85;;;;;;;22.70;51.74;101057.25;16123320;19;129700;-61
2023/08/19 06:03:37;;;;;;;6.30;5.80;;;;;;;22.70;52.13;101060.06;16119552;19;129449;-60
2023/08/19 06:08:59;;;;;;;6.60;5.85;;;;;;;22.69;52.11;101073.13;16124120;19;130917;-59
2023/08/19 06:14:21;;;;;;;5.88;5.32;;;;;;;22.68;52.13;101074.25;16123419;19;129098;-60
2023/08/19 06:19:44;;;;;;;6.20;5.60;;;;;;;22.69;51.95;101078.72;16123875;19;130800;-57
2023/08/19 06:25:06;;;;;;;6.50;5.90;;;;;;;22.69;52.44;101092.66;16123256;19;131064;-58
2023/08/19 06:30:28;;;;;;;6.30;5.70;;;;;;;22.69;52.08;101103.81;16121014;19;130489;-56
2023/08/19 06:35:51;;;;;;;6.18;5.57;;;;;;;22.70;52.12;101099.91;16120020;19;131254;-56
2023/08/19 06:41:13;;;;;;;5.95;5.43;;;;;;;22.70;51.97;101111.06;16121231;19;130097;-54
2023/08/19 06:46:36;;;;;;;6.20;5.60;;;;;;;22.69;52.06;101117.75;16120399;19;129769;-58
2023/08/19 06:51:59;;;;;;;6.50;5.85;;;;;;;22.70;52.30;101133.38;16122121;19;130783;-57
2023/08/19 06:57:35;;;;;;;6.03;5.43;;;;;;;22.71;52.18;101139.78;16120885;19;129718;-54
2023/08/19 07:02:58;;;;;;;5.72;5.22;;;;;;;22.70;51.85;101152.06;16121751;19;129618;-57
2023/08/19 07:08:22;;;;;;;5.75;5.25;;;;;;;22.70;52.27;101143.72;16114874;19;131757;-57
2023/08/19 07:13:44;;;;;;;5.10;4.70;;;;;;;22.69;52.04;101123.34;16116561;19;129184;-57
2023/08/19 07:19:10;;;;;;;5.85;5.20;;;;;;;22.70;52.17;101141.75;16120364;19;129691;-57
2023/08/19 07:24:32;;;;;;;6.32;5.60;;;;;;;22.70;52.24;101160.44;16120666;19;129534;-56
2023/08/19 07:29:56;;;;;;;5.75;5.22;;;;;;;22.71;52.16;101176.03;16114890;19;129597;-55
2023/08/19 07:35:18;;;;;;;5.32;4.82;;;;;;;22.69;52.23;101162.38;16118068;19;129865;-55
2023/08/19 07:40:41;;;;;;;5.30;4.80;;;;;;;22.70;51.77;101169.63;16118035;19;129428;-56
2023/08/19 07:46:03;;;;;;;4.88;4.47;;;;;;;22.71;52.12;101196.41;16120231;19;129876;-55
2023/08/19 07:51:25;;;;;;;5.20;4.70;;;;;;;22.71;52.06;101202.00;16119636;19;129192;-56
2023/08/19 07:56:47;;;;;;;5.10;4.60;;;;;;;22.71;52.19;101212.28;16115781;19;129720;-58
2023/08/19 08:02:09;;;;;;;5.10;4.65;;;;;;;22.71;52.22;101213.16;16121293;19;129887;-57
2023/08/19 08:07:31;;;;;;;5.45;4.63;;;;;;;22.72;52.12;101220.41;16113771;19;129576;-58
2023/08/19 08:12:54;;;;;;;4.68;4.28;;;;;;;22.72;52.29;101226.00;16114191;19;129741;-56
2023/08/19 08:18:16;;;;;;;4.93;4.43;;;;;;;22.73;52.33;101224.03;16111662;19;129584;-56
2023/08/19 08:23:38;;;;;;;5.82;4.72;;;;;;;22.73;52.18;101238.84;16108333;19;135060;-58
2023/08/19 08:29:00;;;;;;;4.88;4.40;;;;;;;22.73;52.42;101236.03;16103532;19;135002;-58
2023/08/19 08:34:22;;;;;;;5.45;4.32;;;;;;;22.73;52.81;101258.34;16113748;19;129468;-56
2023/08/19 08:39:45;;;;;;;5.90;4.80;;;;;;;22.73;52.28;101266.72;16109737;19;129090;-57
2023/08/19 08:45:09;;;;;;;5.07;4.57;;;;;;;22.75;52.23;101274.81;16115508;19;129783;-57
2023/08/19 08:50:31;;;;;;;4.88;4.47;;;;;;;22.75;52.44;101288.75;16117860;19;129848;-57
2023/08/19 08:55:54;;;;;;;4.65;4.25;;;;;;;22.74;52.65;101301.88;16127494;19;130591;-57
2023/08/19 09:01:19;;;;;;;4.70;4.05;;;;;;;22.75;52.29;101311.06;16126489;19;130815;-58
2023/08/19 09:06:42;;;;;;;5.77;4.77;;;;;;;22.75;52.83;101319.44;16128544;19;129255;-58
2023/08/19 09:12:10;;;;;;;5.10;4.55;;;;;;;22.77;52.49;101327.56;16126895;19;129236;-57
2023/08/19 09:17:33;;;;;;;5.22;4.68;;;;;;;22.77;52.76;101344.28;16126795;19;129539;-56
2023/08/19 09:23:08;;;;;;;5.18;4.65;;;;;;;22.79;52.64;101342.06;16128201;19;130811;-57
2023/08/19 09:28:33;;;;;;;4.90;4.50;;;;;;;22.77;52.56;101358.25;16125791;19;128960;-56
2023/08/19 09:33:55;;;;;;;5.55;3.97;;;;;;;22.78;52.55;101368.28;16125694;19;129009;-55
2023/08/19 09:39:19;;;;;;;4.80;4.20;;;;;;;22.77;52.72;101370.22;16122366;19;131019;-56
2023/08/19 09:44:43;;;;;;;5.25;4.28;;;;;;;22.78;52.92;101369.13;16122347;19;129931;-57
2023/08/19 09:50:06;;;;;;;4.45;4.05;;;;;;;22.79;52.58;101384.75;16122583;19;130544;-57
2023/08/19 09:55:30;;;;;;;5.18;4.00;;;;;;;22.79;52.46;101403.44;16122362;19;130470;-56
2023/08/19 10:00:52;;;;;;;4.93;4.30;;;;;;;22.78;52.59;101391.44;16125132;19;129461;-56
2023/08/19 10:06:25;;;;;;;6.30;3.83;;;;;;;22.81;52.68;101409.59;16126872;19;129580;-58
2023/08/19 10:11:50;;;;;;;5.05;4.10;;;;;;;22.81;52.87;101416.03;16121469;19;131036;-57
2023/08/19 10:17:13;;;;;;;;;;;;;;;22.78;52.81;101424.06;16120628;19;129473;-56
2023/08/19 10:22:37;;;;;;;4.50;4.10;;;;;;;22.81;52.65;101420.75;16121603;19;129617;-57
2023/08/19 10:28:13;;;;;;;4.77;4.17;;;;;;;22.81;52.67;101445.84;16121667;19;131061;-57
2023/08/19 10:33:49;;;;;;;5.57;4.30;;;;;;;22.80;52.45;101447.81;16122953;19;130690;-56
2023/08/19 10:39:15;;;;;;;6.13;3.80;;;;;;;22.80;52.72;101450.59;16121494;19;131789;-56
2023/08/19 10:44:38;;;;;;;7.97;4.20;;;;;;;22.80;52.88;101458.97;16119837;19;130024;-59
2023/08/19 10:50:04;;;;;;;4.22;3.83;;;;;;;22.81;52.75;101482.13;16118932;19;129558;-55
2023/08/19 10:55:26;;;;;;;4.65;4.07;;;;;;;22.81;52.88;101507.22;16118657;19;129669;-57
2023/08/19 11:00:49;;;;;;;4.68;4.20;;;;;;;22.82;52.67;101517.28;16119251;19;129378;-55
2023/08/19 11:06:11;;;;;;;4.70;4.22;;;;;;;22.83;52.75;101569.19;16116199;19;129736;-57
2023/08/19 11:11:33;;;;;;;4.80;4.03;;;;;;;22.82;52.70;101570.28;16116716;19;133523;-56
2023/08/19 11:16:56;;;;;;;3.95;3.42;;;;;;;22.82;52.82;101570.28;16118730;19;130099;-58
2023/08/19 11:22:18;;;;;;;4.45;3.88;;;;;;;22.83;52.38;101563.59;16117019;19;133029;-56
2023/08/19 11:27:40;;;;;;;4.55;3.65;;;;;;;22.82;52.45;101573.94;16118524;19;130196;-55
2023/08/19 11:33:02;;;;;;;4.15;3.75;;;;;;;22.82;52.74;101553.53;16118008;19;129721;-56
2023/08/19 11:38:24;;;;;;;3.95;3.55;;;;;;;22.83;52.73;101555.22;16109164;19;131141;-58
2023/08/19 11:43:46;;;;;;;4.38;3.58;;;;;;;22.86;52.71;101560.31;16105398;19;130989;-58
2023/08/19 11:49:10;;;;;;;4.10;3.70;;;;;;;22.89;52.99;101599.69;16112896;19;129446;-57
2023/08/19 11:54:32;;;;;;;4.22;3.50;;;;;;;22.94;52.88;101600.88;16112855;19;130793;-58
2023/08/19 11:59:56;;;;;;;3.88;3.53;;;;;;;22.96;52.77;101601.44;16111609;19;130983;-58
2023/08/19 12:05:26;;;;;;;3.83;3.42;;;;;;;22.98;52.99;101590.88;16110601;19;131213;-58
2023/08/19 12:10:52;;;;;;;3.80;3.50;;;;;;;22.98;52.61;101607.63;16112132;19;130072;-57
2023/08/19 12:16:14;;;;;;;3.80;3.47;;;;;;;22.98;52.82;101604.81;16110306;19;130905;-58
2023/08/19 12:21:36;;;;;;;4.07;3.47;;;;;;;22.97;52.99;101606.78;16113497;19;130516;-57
2023/08/19 12:26:58;;;;;;;3.78;3.33;;;;;;;22.99;53.00;101629.69;16120607;19;135032;-58
2023/08/19 12:32:20;;;;;;;3.72;3.42;;;;;;;22.98;52.94;101636.38;16128336;19;129818;-58
2023/08/19 12:37:42;;;;;;;4.55;3.83;;;;;;;22.98;53.29;101657.84;16130769;19;130478;-57
2023/08/19 12:43:04;;;;;;;4.80;3.80;;;;;;;22.98;52.94;101658.69;16129443;19;129561;-58
2023/08/19 12:48:26;;;;;;;4.10;3.70;;;;;;;22.97;53.20;101667.31;16119243;19;130786;-58
2023/08/19 12:53:48;;;;;;;3.47;3.03;;;;;;;22.97;53.15;101701.66;16111773;19;131853;-57
2023/08/19 12:59:10;;;;;;;3.63;3.10;;;;;;;22.98;53.33;101672.66;16114755;19;130336;-58
2023/08/19 13:04:33;;;;;;;6.03;3.72;;;;;;;23.00;53.42;101683.53;16115195;19;132333;-55
2023/08/19 13:09:56;;;;;;;4.68;2.85;;;;;;;23.02;53.41;101701.72;16115222;19;130711;-54
2023/08/19 13:15:18;;;;;;;4.60;2.60;;;;;;;23.06;53.69;101665.78;16118950;19;134924;-55
2023/08/19 13:20:40;;;;;;;4.25;2.50;;;;;;;23.09;53.63;101737.81;16122967;19;130753;-56
2023/08/19 13:26:03;;;;;;;6.10;2.40;;;;;;;23.15;53.45;101686.56;16113642;19;129905;-56
2023/08/19 13:31:25;;;;;;;5.70;2.35;;;;;;;23.24;53.66;101692.53;16119674;19;130181;-55
2023/08/19 13:36:47;;;;;;;9.18;2.40;;;;;;;23.33;53.52;101682.59;16121575;19;129833;-56
2023/08/19 13:42:09;;;;;;;5.70;2.22;;;;;;;23.42;53.33;101680.19;16124064;19;129373;-54
2023/08/19 13:47:31;;;;;;;5.18;2.38;;;;;;;23.49;53.43;101682.78;16120334;19;130940;-53
2023/08/19 13:52:54;;;;;;;9.10;2.70;;;;;;;23.57;52.98;101693.47;16121714;19;130194;-56
2023/08/19 13:58:16;;;;;;;6.90;2.20;;;;;;;23.64;53.31;101682.13;16120099;19;130893;-52
2023/08/19 14:03:37;;;;;;;5.22;2.17;;;;;;;23.69;53.02;101689.72;16124480;19;130182;-54
2023/08/19 14:09:00;;;;;;;12.55;2.78;;;;;;;23.77;53.58;101686.44;16123477;19;129637;-53
2023/08/19 14:14:22;;;;;;;4.60;2.17;;;;;;;23.82;53.81;101700.47;16122111;19;129575;-55
2023/08/19 14:19:45;;;;;;;6.80;2.20;;;;;;;23.86;53.51;101700.78;16120404;19;130735;-61
2023/08/19 14:25:08;;;;;;;8.07;2.42;;;;;;;23.90;53.55;101701.97;16120024;19;129615;-58
2023/08/19 14:30:30;;;;;;;8.20;2.35;;;;;;;23.91;53.50;101692.47;16117651;19;129891;-51
2023/08/19 14:35:52;;;;;;;6.25;2.22;;;;;;;23.94;53.00;101697.50;16119655;19;130133;-51
2023/08/19 14:41:14;;;;;;;5.13;2.47;;;;;;;23.94;53.03;101715.16;16096263;19;129862;-51
2023/08/19 14:46:36;;;;;;;7.30;2.22;;;;;;;23.98;52.96;101715.44;16116753;19;130126;-60
2023/08/19 14:52:02;;;;;;;5.43;2.50;;;;;;;23.99;52.88;101716.31;16118171;19;130935;-51
2023/08/19 14:57:24;;;;;;;5.78;2.20;;;;;;;23.99;52.66;101708.75;16118182;19;130720;-53
2023/08/19 15:02:48;;;;;;;6.45;2.50;;;;;;;24.00;52.56;101706.81;16122528;19;130127;-60
2023/08/19 15:08:10;;;;;;;7.28;1.98;;;;;;;24.00;52.89;101709.63;16116499;19;130969;-53
2023/08/19 15:13:32;;;;;;;6.20;2.00;;;;;;;23.99;52.46;101717.16;16114908;19;130123;-55
2023/08/19 15:18:54;;;;;;;7.82;2.58;;;;;;;24.01;52.31;101728.03;16117433;19;130870;-53
2023/08/19 15:24:17;;;;;;;6.35;1.90;;;;;;;24.03;52.29;101723.03;16112929;19;130135;-52
2023/08/19 15:29:38;;;;;;;6.38;2.53;;;;;;;24.04;52.09;101716.34;16115308;19;129269;-54
2023/08/19 15:35:01;;;;;;;5.25;1.90;;;;;;;24.05;51.64;101710.50;16112635;19;129774;-50
2023/08/19 15:40:23;;;;;;;4.68;1.80;;;;;;;24.08;51.79;101720.31;16115751;19;129999;-55
2023/08/19 15:45:45;;;;;;;5.82;1.98;;;;;;;24.09;51.51;101722.00;16111321;19;129383;-55
2023/08/19 15:51:07;;;;;;;4.43;1.88;;;;;;;24.08;51.30;101732.31;16117212;19;131422;-59
2023/08/19 15:56:29;;;;;;;5.57;1.80;;;;;;;24.06;51.49;101728.94;16107945;19;131356;-60
2023/08/19 16:01:51;;;;;;;8.68;2.17;;;;;;;24.07;51.12;101721.41;16116436;19;129444;-55
2023/08/19 16:07:15;;;;;;;8.02;2.13;;;;;;;24.09;51.10;101717.22;16111815;19;131296;-55
2023/08/19 16:12:38;;;;;;;3.92;1.80;;;;;;;24.09;50.92;101725.63;16108893;19;130939;-60
2023/08/19 16:18:00;;;;;;;7.78;1.85;;;;;;;24.10;51.01;101724.50;16115355;19;129454;-61
2023/08/19 16:23:22;;;;;;;8.85;2.25;;;;;;;24.14;50.93;101726.78;16114301;19;129762;-52
2023/08/19 16:28:44;;;;;;;9.95;2.05;;;;;;;24.14;50.92;101724.81;16107425;19;129161;-54
2023/08/19 16:34:06;;;;;;;27.60;6.38;;;;;;;24.14;51.50;101715.59;16105335;19;130097;-58
2023/08/19 16:39:28;;;;;;;43.83;13.55;;;;;;;24.13;51.36;101711.94;16105874;19;130208;-58
2023/08/19 16:44:50;;;;;;;27.25;11.73;;;;;;;24.10;51.67;101727.31;16106872;19;132106;-58
2023/08/19 16:50:16;;;;;;;33.38;10.75;;;;;;;24.09;51.74;101745.19;16109455;19;130507;-59
2023/08/19 16:55:38;;;;;;;28.50;9.40;;;;;;;24.07;51.76;101743.78;16110885;19;131715;-58
2023/08/19 17:01:04;;;;;;;23.08;8.05;;;;;;;24.06;51.87;101744.88;16108003;19;129850;-59
2023/08/19 17:06:26;;;;;;;20.92;7.18;;;;;;;24.04;51.74;101741.50;16106284;19;130667;-58
2023/08/19 17:11:48;;;;;;;16.60;6.63;;;;;;;24.02;51.73;101749.31;16109074;19;130558;-59
2023/08/19 17:17:10;;;;;;;16.08;5.82;;;;;;;24.02;51.65;101752.09;16117243;19;130133;-58
2023/08/19 17:22:36;;;;;;;19.88;5.53;;;;;;;24.02;51.71;101755.75;16115183;19;130455;-59
2023/08/19 17:27:59;;;;;;;15.75;5.15;;;;;;;24.05;51.60;101748.78;16117772;19;132210;-59
2023/08/19 17:33:21;;;;;;;14.65;4.55;;;;;;;24.07;51.49;101768.94;16121911;19;130677;-61
2023/08/19 17:38:43;;;;;;;18.65;4.05;;;;;;;24.08;51.24;101759.44;16122400;19;129688;-60
2023/08/19 17:44:05;;;;;;;15.55;3.88;;;;;;;24.05;51.32;101769.22;16115790;19;130624;-61
2023/08/19 17:49:27;;;;;;;9.38;3.17;;;;;;;24.05;51.38;101765.56;16118297;19;130930;-60
2023/08/19 17:54:52;;;;;;;9.10;3.08;;;;;;;24.04;51.46;101772.25;16118113;19;129339;-60
2023/08/19 18:00:14;;;;;;;10.57;3.30;;;;;;;24.04;51.34;101780.63;16120944;19;129520;-59
2023/08/19 18:05:36;;;;;;;11.65;2.97;;;;;;;24.03;51.21;101781.72;16115909;19;131299;-60
2023/08/19 18:10:58;;;;;;;15.40;3.20;;;;;;;24.02;51.45;101785.63;16116246;19;131560;-61
2023/08/19 18:16:20;;;;;;;15.88;3.13;;;;;;;24.00;51.59;101787.88;16119708;19;131058;-57
2023/08/19 18:21:42;;;;;;;17.27;3.58;;;;;;;23.97;51.74;101792.88;16130877;19;129347;-59
2023/08/19 18:27:04;;;;;;;11.25;2.72;;;;;;;23.95;51.20;101783.03;16127761;19;129536;-61
2023/08/19 18:32:26;;;;;;;7.63;2.65;;;;;;;23.94;51.55;101778.56;16126577;19;131039;-61
2023/08/19 18:37:48;;;;;;;21.42;3.05;;;;;;;23.93;51.82;101779.69;16124448;19;129853;-59
2023/08/19 18:43:11;;;;;;;11.93;2.65;;;;;;;23.94;51.95;101787.81;16122602;19;130528;-62
2023/08/19 18:48:33;;;;;;;7.88;2.50;;;;;;;23.93;52.10;101788.91;16146728;19;130412;-72
2023/08/19 18:53:58;;;;;;;7.82;2.40;;;;;;;23.93;52.42;101805.69;16164746;19;129506;-63
2023/08/19 18:59:20;;;;;;;9.90;2.42;;;;;;;23.94;52.22;101809.31;16168574;19;130228;-58
2023/08/19 19:04:42;;;;;;;8.98;2.05;;;;;;;23.95;52.20;101808.19;16166179;19;131086;-58
2023/08/19 19:10:04;;;;;;;5.35;2.33;;;;;;;23.95;52.24;101814.66;16180358;19;129493;-61
2023/08/19 19:15:26;;;;;;;11.27;2.28;;;;;;;23.96;51.95;101826.66;16191702;19;129929;-62
2023/08/19 19:20:48;;;;;;;7.80;1.80;;;;;;;23.93;51.99;101825.25;16196455;19;129475;-60
2023/08/19 19:26:10;;;;;;;6.07;1.52;;;;;;;23.91;51.73;101827.44;16197998;19;129559;-62
2023/08/19 19:31:32;;;;;;;10.98;2.33;;;;;;;23.90;51.72;101836.09;16194248;19;129280;-62
2023/08/19 19:36:54;;;;;;;9.82;1.83;;;;;;;23.86;51.79;101846.97;16195910;19;130345;-61
2023/08/19 19:42:16;;;;;;;9.57;1.75;;;;;;;23.84;51.69;101854.75;16197750;19;129265;-63
2023/08/19 19:47:40;;;;;;;12.10;2.10;;;;;;;23.82;52.02;101859.75;16197782;19;130659;-62
2023/08/19 19:53:02;;;;;;;16.95;2.08;;;;;;;23.80;51.93;101870.34;16189316;19;130118;-62
2023/08/19 19:58:24;;;;;;;5.93;1.60;;;;;;;23.80;51.79;101870.34;16184408;19;129595;-62
2023/08/19 20:03:46;;;;;;;10.07;2.17;;;;;;;23.79;51.45;101883.47;16188624;19;129087;-63
2023/08/19 20:09:10;;;;;;;4.47;1.80;;;;;;;23.78;51.99;101880.91;16197889;19;129109;-63
2023/08/19 20:14:33;;;;;;;9.00;2.03;;;;;;;23.76;51.44;101886.78;16192139;19;129446;-62
2023/08/19 20:19:55;;;;;;;8.93;2.17;;;;;;;23.75;51.46;101899.06;16156484;19;129905;-62
2023/08/19 20:25:19;;;;;;;8.57;2.58;;;;;;;23.76;51.35;101911.06;16182148;19;129917;-64
2023/08/19 20:30:41;;;;;;;9.05;1.75;;;;;;;23.75;51.87;101918.63;16171527;19;129436;-63
2023/08/19 20:36:03;;;;;;;6.90;1.88;;;;;;;23.76;51.97;101925.91;16125643;19;129676;-64
2023/08/19 20:41:26;;;;;;;7.30;1.90;;;;;;;23.76;51.51;101930.63;16111957;19;129304;-63
2023/08/19 20:46:48;;;;;;;16.67;2.17;;;;;;;23.76;51.86;101942.66;16114858;19;131142;-58
2023/08/19 20:52:10;;;;;;;21.77;2.35;;;;;;;23.75;51.72;101945.72;16124100;19;130152;-65
2023/08/19 20:57:32;;;;;;;14.48;2.38;;;;;;;23.73;51.67;101964.69;16107200;19;130363;-63
2023/08/19 21:02:55;;;;;;;10.55;2.30;;;;;;;23.70;51.82;101965.19;16119323;19;130259;-62
2023/08/19 21:08:17;;;;;;;12.55;2.28;;;;;;;23.67;51.40;101966.56;16119069;19;129921;-61
2023/08/19 21:13:39;;;;;;;6.07;2.28;;;;;;;23.63;52.01;101963.41;16121513;19;130896;-62
2023/08/19 21:19:01;;;;;;;6.93;2.08;;;;;;;23.61;51.58;101962.84;16124667;19;129794;-61
2023/08/19 21:24:23;;;;;;;11.02;1.98;;;;;;;23.60;51.96;101963.06;16124090;19;131130;-61
2023/08/19 21:29:45;;;;;;;13.45;2.60;;;;;;;23.55;51.74;101952.66;16123317;19;129623;-62
2023/08/19 21:35:07;;;;;;;9.75;2.20;;;;;;;23.54;51.61;101969.66;16122008;19;129820;-61
2023/08/19 21:40:29;;;;;;;10.00;2.15;;;;;;;23.52;51.70;101969.91;16120977;19;130074;-61
2023/08/19 21:45:58;;;;;;;6.53;1.80;;;;;;;23.52;51.63;101958.72;16117277;19;130042;-61
2023/08/19 21:51:20;;;;;;;6.05;1.90;;;;;;;23.49;51.67;101959.25;16124042;19;129856;-61
2023/08/19 21:56:42;;;;;;;6.45;1.70;;;;;;;23.48;51.56;101963.16;16121172;19;131086;-61
2023/08/19 22:02:05;;;;;;;7.00;1.67;;;;;;;23.46;51.64;101970.94;16118903;19;130253;-62
2023/08/19 22:07:27;;;;;;;5.65;1.80;;;;;;;23.46;51.78;101990.50;16120258;19;129937;-61
2023/08/19 22:12:49;;;;;;;5.07;2.03;;;;;;;23.45;51.62;101988.78;16120450;19;131034;-61
2023/08/19 22:18:11;;;;;;;3.70;1.58;;;;;;;23.43;51.67;101991.84;16125044;19;130971;-61
2023/08/19 22:23:33;;;;;;;5.88;1.95;;;;;;;23.43;51.88;101982.59;16122555;19;131298;-61
2023/08/19 22:28:55;;;;;;;8.15;1.83;;;;;;;23.42;51.81;101981.78;16121619;19;130784;-62
2023/08/19 22:34:17;;;;;;;6.43;1.55;;;;;;;23.41;51.75;101990.38;16121832;19;129992;-61
2023/08/19 22:39:39;;;;;;;8.88;1.67;;;;;;;23.40;51.61;101989.56;16128686;19;129384;-61
2023/08/19 22:45:01;;;;;;;3.42;1.38;;;;;;;23.39;51.70;102000.97;16121871;19;129731;-61
2023/08/19 22:50:23;;;;;;;3.65;1.30;;;;;;;23.38;51.65;102002.91;16124511;19;132772;-61
2023/08/19 22:55:45;;;;;;;4.85;1.45;;;;;;;23.38;51.45;102014.09;16123872;19;130042;-61
2023/08/19 23:01:07;;;;;;;4.55;1.52;;;;;;;23.37;51.36;102011.56;16121096;19;129095;-61
2023/08/19 23:06:29;;;;;;;5.72;1.73;;;;;;;23.34;51.80;101999.78;16121544;19;130705;-61
2023/08/19 23:11:50;;;;;;;5.70;1.52;;;;;;;23.35;51.46;101997.84;16115786;19;129305;-62
2023/08/19 23:17:13;;;;;;;4.18;1.73;;;;;;;23.34;52.01;102010.09;16119474;19;129672;-61
2023/08/19 23:22:38;;;;;;;2.38;1.25;;;;;;;23.33;51.73;102009.25;16119590;19;131333;-64
2023/08/19 23:28:00;;;;;;;3.28;1.40;;;;;;;23.32;51.56;102001.97;16117907;19;129639;-61
2023/08/19 23:33:21;;;;;;;5.28;1.75;;;;;;;23.32;51.89;102001.16;16111958;19;129874;-61
2023/08/19 23:38:45;;;;;;;5.13;1.50;;;;;;;23.31;51.81;101980.75;16115191;19;130345;-61
2023/08/19 23:44:07;;;;;;;5.82;1.40;;;;;;;23.30;51.64;101984.63;16116613;19;129559;-61
2023/08/19 23:49:29;;;;;;;2.63;1.40;;;;;;;23.30;51.71;101990.22;16113414;19;129773;-61
2023/08/19 23:54:51;;;;;;;4.38;1.35;;;;;;;23.29;51.49;101988.53;16115788;19;130455;-61
